Andrew J. Barberi — WYR3370 — position and weather

sailwx.info

Track history (hours):
 
Tides and Currents Weather Stations Pressure Air Temp Water Temp Dewpoint Dewpoint Depression Visibility Wind Speed Wind Dir Waves Ship Positions

Andrew J. Barberi

Owner: CITY OF NEW YORK, Brooklyn, NY. More information available from US FCC via Universal Licensing System and Coast Guard Vessel Documentation Center.

Last reported at 2016-Apr-30 14:33 UTC. Time now 2016-Apr-30 15:04 UTC.
Position N 40°39' W 074°04'.

Length 94 m; draft 4.3 m.

Type: Ship. MMSI: 367000150.

Date/timePositionNaut miles runAvg speedWind from/ knotsBaromVisibWave heightAir tempDewpointWater temp
2016-Apr-30 14:33N 40°39' W 074°04'0 0.0
2016-Apr-30 13:33N 40°39' W 074°04'0 0.0
2016-Apr-30 12:33N 40°39' W 074°04'0 0.0
2016-Apr-30 11:33N 40°39' W 074°04'0 0.0
2016-Apr-30 10:30N 40°39' W 074°04'0 0.0
2016-Apr-30 09:30N 40°39' W 074°04'0 0.0
2016-Apr-30 08:33N 40°39' W 074°04'0 0.0
2016-Apr-30 07:33N 40°39' W 074°04'0 0.0
2016-Apr-30 06:33N 40°39' W 074°04'0 0.0
2016-Apr-30 05:33N 40°39' W 074°04'0 0.0
2016-Apr-30 04:33N 40°39' W 074°04'0 0.0
2016-Apr-30 03:33N 40°39' W 074°04'0 0.0
2016-Apr-30 02:33N 40°39' W 074°04'0 0.0
2016-Apr-30 01:33N 40°39' W 074°04'0 0.0
2016-Apr-30 00:33N 40°39' W 074°04'0 0.0
2016-Apr-29 23:33N 40°39' W 074°04'0 0.0
2016-Apr-29 22:33N 40°39' W 074°04'0 0.0
2016-Apr-29 21:33N 40°39' W 074°04'0 0.0
2016-Apr-29 20:33N 40°39' W 074°04'0 0.0
2016-Apr-29 19:33N 40°39' W 074°04'0 0.0
2016-Apr-29 18:33N 40°39' W 074°04'0 0.0
2016-Apr-29 17:33N 40°39' W 074°04'0 0.0
2016-Apr-29 16:33N 40°39' W 074°04'0 0.1
2016-Apr-29 15:33N 40°39' W 074°04'0 0.2
2016-Apr-29 14:33N 40°39' W 074°04'0 0.1
2016-Apr-29 13:33N 40°39' W 074°04'2 1.9
2016-Apr-29 12:33N 40°40' W 074°03'1 0.8
2016-Apr-29 11:33N 40°41' W 074°02'1 1.5
2016-Apr-29 10:33N 40°42' W 074°01'4 4.3
2016-Apr-29 09:33N 40°39' W 074°04'0 0.0
2016-Apr-29 08:33N 40°39' W 074°04'0 0.0
2016-Apr-29 07:26N 40°39' W 074°04'0 0.0
2016-Apr-29 06:20N 40°39' W 074°04'0 0.0
2016-Apr-29 05:20N 40°39' W 074°04'0 0.0
2016-Apr-29 04:32N 40°39' W 074°04'0 0.0
2016-Apr-29 03:26N 40°39' W 074°04'0 0.1
2016-Apr-29 01:33N 40°39' W 074°04'4 4.3
2016-Apr-29 00:34N 40°42' W 074°01'4 4.2
2016-Apr-28 23:33N 40°39' W 074°04'0 0.0
2016-Apr-28 22:33N 40°39' W 074°04'0 0.2
2016-Apr-28 21:34N 40°39' W 074°04'4 4.1
2016-Apr-28 20:34N 40°42' W 074°01'0 0.0
2016-Apr-28 19:33N 40°42' W 074°01'4 4.3
2016-Apr-28 18:33N 40°39' W 074°04'0 0.3
2016-Apr-28 17:33N 40°39' W 074°04'0 0.2
2016-Apr-28 16:09N 40°39' W 074°04'0 0.0
2016-Apr-28 15:33N 40°39' W 074°04'0 0.1
2016-Apr-28 14:33N 40°39' W 074°04'0 0.4
2016-Apr-28 13:33N 40°39' W 074°04'3 2.8
2016-Apr-28 12:34N 40°41' W 074°02'1 0.6
2016-Apr-28 11:34N 40°41' W 074°02'2 1.8
2016-Apr-28 10:33N 40°42' W 074°01'4 4.3
2016-Apr-28 09:34N 40°39' W 074°04'0 0.1
2016-Apr-28 08:33N 40°39' W 074°04'0 0.0
2016-Apr-28 07:33N 40°39' W 074°04'0 0.0
2016-Apr-28 06:32N 40°39' W 074°04'0 0.0
2016-Apr-28 05:32N 40°39' W 074°04'0 0.0
2016-Apr-28 04:32N 40°39' W 074°04'0 0.0
2016-Apr-28 03:32N 40°39' W 074°04'0 0.0
2016-Apr-28 02:32N 40°39' W 074°04'0 0.1
2016-Apr-28 01:34N 40°39' W 074°04'4 4.3
2016-Apr-28 00:33N 40°42' W 074°01'4 4.3
2016-Apr-27 23:33N 40°39' W 074°04'0 0.0
2016-Apr-27 22:28N 40°39' W 074°04'0 0.0
2016-Apr-27 21:33N 40°39' W 074°04'4 4.3
2016-Apr-27 20:33N 40°42' W 074°01'0 0.0
2016-Apr-27 19:33N 40°42' W 074°01'4 3.7
2016-Apr-27 18:25N 40°39' W 074°04'0 0.5
2016-Apr-27 17:34N 40°39' W 074°04'4 3.8
2016-Apr-27 16:34N 40°42' W 074°01'4 4.1
2016-Apr-27 15:33N 40°39' W 074°04'0 0.0
2016-Apr-27 14:33N 40°39' W 074°04'0 0.0
2016-Apr-27 13:33N 40°39' W 074°04'3 2.6
2016-Apr-27 12:33N 40°41' W 074°02'1 0.7
2016-Apr-27 11:33N 40°41' W 074°02'1 1.0
2016-Apr-27 10:33N 40°42' W 074°01'5 4.5
2016-Apr-27 09:33N 40°38' W 074°04'1 0.9
2016-Apr-27 08:33N 40°39' W 074°04'0 0.0
2016-Apr-27 07:34N 40°39' W 074°04'0 0.0
2016-Apr-27 06:33N 40°39' W 074°04'0 0.0
2016-Apr-27 05:33N 40°39' W 074°04'0 0.0
2016-Apr-27 04:33N 40°39' W 074°04'0 0.0
2016-Apr-27 03:33N 40°39' W 074°04'0 0.0
2016-Apr-27 02:33N 40°39' W 074°04'0 0.0
2016-Apr-27 01:33N 40°39' W 074°04'4 4.3
2016-Apr-27 00:33N 40°42' W 074°01'4 2.1
2016-Apr-26 22:33N 40°39' W 074°04'0 0.4
2016-Apr-26 21:34N 40°39' W 074°04'4 3.8
2016-Apr-26 20:33N 40°42' W 074°01'0 0.1
2016-Apr-26 19:34N 40°42' W 074°01'4 3.8
2016-Apr-26 18:26N 40°39' W 074°04'0 0.2
2016-Apr-26 17:33N 40°39' W 074°04'4 4.1
2016-Apr-26 16:33N 40°42' W 074°01'4 4.3
2016-Apr-26 15:33N 40°39' W 074°04'0 0.0
2016-Apr-26 14:34N 40°39' W 074°04'0 0.0
2016-Apr-26 13:33N 40°39' W 074°04'4 3.6
2016-Apr-26 12:34N 40°42' W 074°01'0 0.2
2016-Apr-26 11:33N 40°41' W 074°02'1 0.8
2016-Apr-26 10:33N 40°42' W 074°01'4 4.3
2016-Apr-26 09:33N 40°39' W 074°04'0 0.0
2016-Apr-26 08:33N 40°39' W 074°04'0 0.0
2016-Apr-26 07:33N 40°39' W 074°04'0 0.0
2016-Apr-26 06:31N 40°39' W 074°04'0 0.0
2016-Apr-26 05:31N 40°39' W 074°04'0 0.0
2016-Apr-26 04:28N 40°39' W 074°04'0 0.0
2016-Apr-26 03:31N 40°39' W 074°04'0 0.0
2016-Apr-26 02:31N 40°39' W 074°04'0 0.0
2016-Apr-26 01:31N 40°39' W 074°04'4 4.4
2016-Apr-26 00:33N 40°42' W 074°01'4 4.3
2016-Apr-25 23:33N 40°39' W 074°04'0 0.1
2016-Apr-25 22:30N 40°39' W 074°04'0 0.1
2016-Apr-25 21:33N 40°39' W 074°04'4 4.2
2016-Apr-25 20:34N 40°42' W 074°01'0 0.1
2016-Apr-25 19:33N 40°42' W 074°01'4 4.2
2016-Apr-25 18:33N 40°39' W 074°04'0 0.2
2016-Apr-25 17:33N 40°39' W 074°04'0 0.2
2016-Apr-25 16:34N 40°39' W 074°04'0 0.0
2016-Apr-25 15:33N 40°39' W 074°04'0 0.0
2016-Apr-25 14:33N 40°39' W 074°04'0 0.0
2016-Apr-25 13:31N 40°39' W 074°04'0 0.0
2016-Apr-25 12:31N 40°39' W 074°04'0 0.0
2016-Apr-25 11:31N 40°39' W 074°04'0 0.0
2016-Apr-25 10:31N 40°39' W 074°04'0 0.0
2016-Apr-25 09:28N 40°39' W 074°04'0 0.0
2016-Apr-25 08:31N 40°39' W 074°04'0 0.0
2016-Apr-25 07:31N 40°39' W 074°04'0 0.0
2016-Apr-25 06:31N 40°39' W 074°04'0 0.0
2016-Apr-25 05:31N 40°39' W 074°04'0 0.0
2016-Apr-25 04:31N 40°39' W 074°04'0 0.0
2016-Apr-25 03:31N 40°39' W 074°04'0 0.0
2016-Apr-25 02:31N 40°39' W 074°04'0 0.0
2016-Apr-25 01:31N 40°39' W 074°04'0 0.0
2016-Apr-25 00:31N 40°39' W 074°04'0 0.0
2016-Apr-24 23:31N 40°39' W 074°04'0 0.0
2016-Apr-24 22:31N 40°39' W 074°04'0 0.0
2016-Apr-24 21:28N 40°39' W 074°04'0 0.0
2016-Apr-24 20:31N 40°39' W 074°04'0 0.0
2016-Apr-24 19:31N 40°39' W 074°04'0 0.0
2016-Apr-24 18:31N 40°39' W 074°04'0 0.0
2016-Apr-24 17:31N 40°39' W 074°04'0 0.0
2016-Apr-24 16:31N 40°39' W 074°04'0 0.0
2016-Apr-24 15:31N 40°39' W 074°04'0 0.0
2016-Apr-24 14:31N 40°39' W 074°04'0 0.0
2016-Apr-24 13:31N 40°39' W 074°04'0 0.0
2016-Apr-24 12:31N 40°39' W 074°04'0 0.0
2016-Apr-24 11:31N 40°39' W 074°04'0 0.0
2016-Apr-24 10:22N 40°39' W 074°04'0 0.0
2016-Apr-24 09:31N 40°39' W 074°04'0 0.0
2016-Apr-24 08:31N 40°39' W 074°04'0 0.0
2016-Apr-24 07:31N 40°39' W 074°04'0 0.0
2016-Apr-24 06:31N 40°39' W 074°04'0 0.0
2016-Apr-24 05:31N 40°39' W 074°04'0 0.0
2016-Apr-24 04:31N 40°39' W 074°04'0 0.0
2016-Apr-24 03:31N 40°39' W 074°04'0 0.0
2016-Apr-24 02:31N 40°39' W 074°04'0 0.0
2016-Apr-24 01:31N 40°39' W 074°04'0 0.0
2016-Apr-24 00:31N 40°39' W 074°04'0 0.0
2016-Apr-23 23:31N 40°39' W 074°04'0 0.0
2016-Apr-23 22:31N 40°39' W 074°04'0 0.0
2016-Apr-23 21:31N 40°39' W 074°04'0 0.0
2016-Apr-23 20:31N 40°39' W 074°04'0 0.0
2016-Apr-23 19:31N 40°39' W 074°04'0 0.0
2016-Apr-23 18:31N 40°39' W 074°04'0 0.0
2016-Apr-23 17:31N 40°39' W 074°04'0 0.0
2016-Apr-23 16:31N 40°39' W 074°04'0 0.0
2016-Apr-23 15:31N 40°39' W 074°04'0 0.0
2016-Apr-23 14:31N 40°39' W 074°04'0 0.0
2016-Apr-23 13:31N 40°39' W 074°04'0 0.0
2016-Apr-23 12:31N 40°39' W 074°04'0 0.0
2016-Apr-23 11:31N 40°39' W 074°04'0 0.0
2016-Apr-23 10:31N 40°39' W 074°04'0 0.0
2016-Apr-23 09:31N 40°39' W 074°04'0 0.0
2016-Apr-23 08:31N 40°39' W 074°04'0 0.0
2016-Apr-23 07:31N 40°39' W 074°04'0 0.0
2016-Apr-23 06:31N 40°39' W 074°04'0 0.0
2016-Apr-23 05:31N 40°39' W 074°04'0 0.0
2016-Apr-23 04:31N 40°39' W 074°04'0 0.0
2016-Apr-23 03:31N 40°39' W 074°04'0 0.0
2016-Apr-23 02:31N 40°39' W 074°04'0 0.0
2016-Apr-23 01:31N 40°39' W 074°04'0 0.0
2016-Apr-23 00:31N 40°39' W 074°04'0 0.0
2016-Apr-22 23:28N 40°39' W 074°04'0 0.0
2016-Apr-22 22:31N 40°39' W 074°04'0 0.0
2016-Apr-22 21:31N 40°39' W 074°04'0 0.0
2016-Apr-22 20:31N 40°39' W 074°04'0 0.0
2016-Apr-22 19:31N 40°39' W 074°04'0 0.0
2016-Apr-22 18:31N 40°39' W 074°04'0 0.0
2016-Apr-22 17:31N 40°39' W 074°04'0 0.0
2016-Apr-22 16:31N 40°39' W 074°04'0 0.0
2016-Apr-22 15:31N 40°39' W 074°04'0 0.0
2016-Apr-22 14:31N 40°39' W 074°04'0 0.0
2016-Apr-22 13:31N 40°39' W 074°04'0 0.0
2016-Apr-22 12:31N 40°39' W 074°04'0 0.0
2016-Apr-22 11:31N 40°39' W 074°04'0 0.0
2016-Apr-22 10:31N 40°39' W 074°04'0 0.0
2016-Apr-22 09:28N 40°39' W 074°04'0 0.0
2016-Apr-22 08:31N 40°39' W 074°04'0 0.0
2016-Apr-22 07:31N 40°39' W 074°04'0 0.0
2016-Apr-22 06:31N 40°39' W 074°04'0 0.0
2016-Apr-22 05:31N 40°39' W 074°04'0 0.0
2016-Apr-22 04:31N 40°39' W 074°04'0 0.0
2016-Apr-22 03:31N 40°39' W 074°04'0 0.0
2016-Apr-22 02:31N 40°39' W 074°04'0 0.0
2016-Apr-22 01:22N 40°39' W 074°04'0 0.0
2016-Apr-22 00:31N 40°39' W 074°04'0 0.0
2016-Apr-21 23:31N 40°39' W 074°04'0 0.0
2016-Apr-21 22:31N 40°39' W 074°04'0 0.0
2016-Apr-21 21:31N 40°39' W 074°04'0 0.0
2016-Apr-21 20:31N 40°39' W 074°04'0 0.0
2016-Apr-21 19:31N 40°39' W 074°04'0 0.0
2016-Apr-21 18:31N 40°39' W 074°04'0 0.0
2016-Apr-21 17:31N 40°39' W 074°04'0 0.0
2016-Apr-21 16:31N 40°39' W 074°04'0 0.0
2016-Apr-21 15:31N 40°39' W 074°04'0 0.0
2016-Apr-21 14:28N 40°39' W 074°04'0 0.0
2016-Apr-21 13:31N 40°39' W 074°04'0 0.0
2016-Apr-21 12:31N 40°39' W 074°04'0 0.0
2016-Apr-21 11:31N 40°39' W 074°04'0 0.0
2016-Apr-21 10:31N 40°39' W 074°04'0 0.0
2016-Apr-21 09:31N 40°39' W 074°04'0 0.0
2016-Apr-21 08:31N 40°39' W 074°04'0 0.0
2016-Apr-21 07:31N 40°39' W 074°04'0 0.0
2016-Apr-21 06:31N 40°39' W 074°04'0 0.0
2016-Apr-21 05:31N 40°39' W 074°04'0 0.0
2016-Apr-21 04:31N 40°39' W 074°04'0 0.0
2016-Apr-21 03:31N 40°39' W 074°04'0 0.0
2016-Apr-21 02:31N 40°39' W 074°04'0 0.0
2016-Apr-21 01:31N 40°39' W 074°04'0 0.0
2016-Apr-21 00:31N 40°39' W 074°04'0 0.0
2016-Apr-20 23:31N 40°39' W 074°04'0 0.0
2016-Apr-20 22:31N 40°39' W 074°04'0 0.0
2016-Apr-20 21:31N 40°39' W 074°04'0 0.0
2016-Apr-20 20:31N 40°39' W 074°04'0 0.0
2016-Apr-20 19:31N 40°39' W 074°04'0 0.0
2016-Apr-20 18:31N 40°39' W 074°04'0 0.0
2016-Apr-20 17:28N 40°39' W 074°04'0 0.0
2016-Apr-20 16:31N 40°39' W 074°04'0 0.0
2016-Apr-20 15:28N 40°39' W 074°04'  
Track history (hours):
 
Tides and Currents Weather Stations Pressure Air Temp Water Temp Dewpoint Dewpoint Depression Visibility Wind Speed Wind Dir Waves Ship Positions

Andrew J. Barberi

Owner: CITY OF NEW YORK, Brooklyn, NY. More information available from US FCC via Universal Licensing System and Coast Guard Vessel Documentation Center.

Last reported at 2016-Apr-30 14:33 UTC. Time now 2016-Apr-30 15:04 UTC.
Position N 40°39' W 074°04'.

Length 94 m; draft 4.3 m.

Type: Ship. MMSI: 367000150.

Date/timePositionNaut miles runAvg speedWind from/ knotsBaromVisibWave heightAir tempDewpointWater temp
2016-Apr-30 14:33N 40°39' W 074°04'0 0.0
2016-Apr-30 13:33N 40°39' W 074°04'0 0.0
2016-Apr-30 12:33N 40°39' W 074°04'0 0.0
2016-Apr-30 11:33N 40°39' W 074°04'0 0.0
2016-Apr-30 10:30N 40°39' W 074°04'0 0.0
2016-Apr-30 09:30N 40°39' W 074°04'0 0.0
2016-Apr-30 08:33N 40°39' W 074°04'0 0.0
2016-Apr-30 07:33N 40°39' W 074°04'0 0.0
2016-Apr-30 06:33N 40°39' W 074°04'0 0.0
2016-Apr-30 05:33N 40°39' W 074°04'0 0.0
2016-Apr-30 04:33N 40°39' W 074°04'0 0.0
2016-Apr-30 03:33N 40°39' W 074°04'0 0.0
2016-Apr-30 02:33N 40°39' W 074°04'0 0.0
2016-Apr-30 01:33N 40°39' W 074°04'0 0.0
2016-Apr-30 00:33N 40°39' W 074°04'0 0.0
2016-Apr-29 23:33N 40°39' W 074°04'0 0.0
2016-Apr-29 22:33N 40°39' W 074°04'0 0.0
2016-Apr-29 21:33N 40°39' W 074°04'0 0.0
2016-Apr-29 20:33N 40°39' W 074°04'0 0.0
2016-Apr-29 19:33N 40°39' W 074°04'0 0.0
2016-Apr-29 18:33N 40°39' W 074°04'0 0.0
2016-Apr-29 17:33N 40°39' W 074°04'0 0.0
2016-Apr-29 16:33N 40°39' W 074°04'0 0.1
2016-Apr-29 15:33N 40°39' W 074°04'0 0.2
2016-Apr-29 14:33N 40°39' W 074°04'0 0.1
2016-Apr-29 13:33N 40°39' W 074°04'2 1.9
2016-Apr-29 12:33N 40°40' W 074°03'1 0.8
2016-Apr-29 11:33N 40°41' W 074°02'1 1.5
2016-Apr-29 10:33N 40°42' W 074°01'4 4.3
2016-Apr-29 09:33N 40°39' W 074°04'0 0.0
2016-Apr-29 08:33N 40°39' W 074°04'0 0.0
2016-Apr-29 07:26N 40°39' W 074°04'0 0.0
2016-Apr-29 06:20N 40°39' W 074°04'0 0.0
2016-Apr-29 05:20N 40°39' W 074°04'0 0.0
2016-Apr-29 04:32N 40°39' W 074°04'0 0.0
2016-Apr-29 03:26N 40°39' W 074°04'0 0.1
2016-Apr-29 01:33N 40°39' W 074°04'4 4.3
2016-Apr-29 00:34N 40°42' W 074°01'4 4.2
2016-Apr-28 23:33N 40°39' W 074°04'0 0.0
2016-Apr-28 22:33N 40°39' W 074°04'0 0.2
2016-Apr-28 21:34N 40°39' W 074°04'4 4.1
2016-Apr-28 20:34N 40°42' W 074°01'0 0.0
2016-Apr-28 19:33N 40°42' W 074°01'4 4.3
2016-Apr-28 18:33N 40°39' W 074°04'0 0.3
2016-Apr-28 17:33N 40°39' W 074°04'0 0.2
2016-Apr-28 16:09N 40°39' W 074°04'0 0.0
2016-Apr-28 15:33N 40°39' W 074°04'0 0.1
2016-Apr-28 14:33N 40°39' W 074°04'0 0.4
2016-Apr-28 13:33N 40°39' W 074°04'3 2.8
2016-Apr-28 12:34N 40°41' W 074°02'1 0.6
2016-Apr-28 11:34N 40°41' W 074°02'2 1.8
2016-Apr-28 10:33N 40°42' W 074°01'4 4.3
2016-Apr-28 09:34N 40°39' W 074°04'0 0.1
2016-Apr-28 08:33N 40°39' W 074°04'0 0.0
2016-Apr-28 07:33N 40°39' W 074°04'0 0.0
2016-Apr-28 06:32N 40°39' W 074°04'0 0.0
2016-Apr-28 05:32N 40°39' W 074°04'0 0.0
2016-Apr-28 04:32N 40°39' W 074°04'0 0.0
2016-Apr-28 03:32N 40°39' W 074°04'0 0.0
2016-Apr-28 02:32N 40°39' W 074°04'0 0.1
2016-Apr-28 01:34N 40°39' W 074°04'4 4.3
2016-Apr-28 00:33N 40°42' W 074°01'4 4.3
2016-Apr-27 23:33N 40°39' W 074°04'0 0.0
2016-Apr-27 22:28N 40°39' W 074°04'0 0.0
2016-Apr-27 21:33N 40°39' W 074°04'4 4.3
2016-Apr-27 20:33N 40°42' W 074°01'0 0.0
2016-Apr-27 19:33N 40°42' W 074°01'4 3.7
2016-Apr-27 18:25N 40°39' W 074°04'0 0.5
2016-Apr-27 17:34N 40°39' W 074°04'4 3.8
2016-Apr-27 16:34N 40°42' W 074°01'4 4.1
2016-Apr-27 15:33N 40°39' W 074°04'0 0.0
2016-Apr-27 14:33N 40°39' W 074°04'0 0.0
2016-Apr-27 13:33N 40°39' W 074°04'3 2.6
2016-Apr-27 12:33N 40°41' W 074°02'1 0.7
2016-Apr-27 11:33N 40°41' W 074°02'1 1.0
2016-Apr-27 10:33N 40°42' W 074°01'5 4.5
2016-Apr-27 09:33N 40°38' W 074°04'1 0.9
2016-Apr-27 08:33N 40°39' W 074°04'0 0.0
2016-Apr-27 07:34N 40°39' W 074°04'0 0.0
2016-Apr-27 06:33N 40°39' W 074°04'0 0.0
2016-Apr-27 05:33N 40°39' W 074°04'0 0.0
2016-Apr-27 04:33N 40°39' W 074°04'0 0.0
2016-Apr-27 03:33N 40°39' W 074°04'0 0.0
2016-Apr-27 02:33N 40°39' W 074°04'0 0.0
2016-Apr-27 01:33N 40°39' W 074°04'4 4.3
2016-Apr-27 00:33N 40°42' W 074°01'4 2.1
2016-Apr-26 22:33N 40°39' W 074°04'0 0.4
2016-Apr-26 21:34N 40°39' W 074°04'4 3.8
2016-Apr-26 20:33N 40°42' W 074°01'0 0.1
2016-Apr-26 19:34N 40°42' W 074°01'4 3.8
2016-Apr-26 18:26N 40°39' W 074°04'0 0.2
2016-Apr-26 17:33N 40°39' W 074°04'4 4.1
2016-Apr-26 16:33N 40°42' W 074°01'4 4.3
2016-Apr-26 15:33N 40°39' W 074°04'0 0.0
2016-Apr-26 14:34N 40°39' W 074°04'0 0.0
2016-Apr-26 13:33N 40°39' W 074°04'4 3.6
2016-Apr-26 12:34N 40°42' W 074°01'0 0.2
2016-Apr-26 11:33N 40°41' W 074°02'1 0.8
2016-Apr-26 10:33N 40°42' W 074°01'4 4.3
2016-Apr-26 09:33N 40°39' W 074°04'0 0.0
2016-Apr-26 08:33N 40°39' W 074°04'0 0.0
2016-Apr-26 07:33N 40°39' W 074°04'0 0.0
2016-Apr-26 06:31N 40°39' W 074°04'0 0.0
2016-Apr-26 05:31N 40°39' W 074°04'0 0.0
2016-Apr-26 04:28N 40°39' W 074°04'0 0.0
2016-Apr-26 03:31N 40°39' W 074°04'0 0.0
2016-Apr-26 02:31N 40°39' W 074°04'0 0.0
2016-Apr-26 01:31N 40°39' W 074°04'4 4.4
2016-Apr-26 00:33N 40°42' W 074°01'4 4.3
2016-Apr-25 23:33N 40°39' W 074°04'0 0.1
2016-Apr-25 22:30N 40°39' W 074°04'0 0.1
2016-Apr-25 21:33N 40°39' W 074°04'4 4.2
2016-Apr-25 20:34N 40°42' W 074°01'0 0.1
2016-Apr-25 19:33N 40°42' W 074°01'4 4.2
2016-Apr-25 18:33N 40°39' W 074°04'0 0.2
2016-Apr-25 17:33N 40°39' W 074°04'0 0.2
2016-Apr-25 16:34N 40°39' W 074°04'0 0.0
2016-Apr-25 15:33N 40°39' W 074°04'0 0.0
2016-Apr-25 14:33N 40°39' W 074°04'0 0.0
2016-Apr-25 13:31N 40°39' W 074°04'0 0.0
2016-Apr-25 12:31N 40°39' W 074°04'0 0.0
2016-Apr-25 11:31N 40°39' W 074°04'0 0.0
2016-Apr-25 10:31N 40°39' W 074°04'0 0.0
2016-Apr-25 09:28N 40°39' W 074°04'0 0.0
2016-Apr-25 08:31N 40°39' W 074°04'0 0.0
2016-Apr-25 07:31N 40°39' W 074°04'0 0.0
2016-Apr-25 06:31N 40°39' W 074°04'0 0.0
2016-Apr-25 05:31N 40°39' W 074°04'0 0.0
2016-Apr-25 04:31N 40°39' W 074°04'0 0.0
2016-Apr-25 03:31N 40°39' W 074°04'0 0.0
2016-Apr-25 02:31N 40°39' W 074°04'0 0.0
2016-Apr-25 01:31N 40°39' W 074°04'0 0.0
2016-Apr-25 00:31N 40°39' W 074°04'0 0.0
2016-Apr-24 23:31N 40°39' W 074°04'0 0.0
2016-Apr-24 22:31N 40°39' W 074°04'0 0.0
2016-Apr-24 21:28N 40°39' W 074°04'0 0.0
2016-Apr-24 20:31N 40°39' W 074°04'0 0.0
2016-Apr-24 19:31N 40°39' W 074°04'0 0.0
2016-Apr-24 18:31N 40°39' W 074°04'0 0.0
2016-Apr-24 17:31N 40°39' W 074°04'0 0.0
2016-Apr-24 16:31N 40°39' W 074°04'0 0.0
2016-Apr-24 15:31N 40°39' W 074°04'0 0.0
2016-Apr-24 14:31N 40°39' W 074°04'0 0.0
2016-Apr-24 13:31N 40°39' W 074°04'0 0.0
2016-Apr-24 12:31N 40°39' W 074°04'0 0.0
2016-Apr-24 11:31N 40°39' W 074°04'0 0.0
2016-Apr-24 10:22N 40°39' W 074°04'0 0.0
2016-Apr-24 09:31N 40°39' W 074°04'0 0.0
2016-Apr-24 08:31N 40°39' W 074°04'0 0.0
2016-Apr-24 07:31N 40°39' W 074°04'0 0.0
2016-Apr-24 06:31N 40°39' W 074°04'0 0.0
2016-Apr-24 05:31N 40°39' W 074°04'0 0.0
2016-Apr-24 04:31N 40°39' W 074°04'0 0.0
2016-Apr-24 03:31N 40°39' W 074°04'0 0.0
2016-Apr-24 02:31N 40°39' W 074°04'0 0.0
2016-Apr-24 01:31N 40°39' W 074°04'0 0.0
2016-Apr-24 00:31N 40°39' W 074°04'0 0.0
2016-Apr-23 23:31N 40°39' W 074°04'0 0.0
2016-Apr-23 22:31N 40°39' W 074°04'0 0.0
2016-Apr-23 21:31N 40°39' W 074°04'0 0.0
2016-Apr-23 20:31N 40°39' W 074°04'0 0.0
2016-Apr-23 19:31N 40°39' W 074°04'0 0.0
2016-Apr-23 18:31N 40°39' W 074°04'0 0.0
2016-Apr-23 17:31N 40°39' W 074°04'0 0.0
2016-Apr-23 16:31N 40°39' W 074°04'0 0.0
2016-Apr-23 15:31N 40°39' W 074°04'0 0.0
2016-Apr-23 14:31N 40°39' W 074°04'0 0.0
2016-Apr-23 13:31N 40°39' W 074°04'0 0.0
2016-Apr-23 12:31N 40°39' W 074°04'0 0.0
2016-Apr-23 11:31N 40°39' W 074°04'0 0.0
2016-Apr-23 10:31N 40°39' W 074°04'0 0.0
2016-Apr-23 09:31N 40°39' W 074°04'0 0.0
2016-Apr-23 08:31N 40°39' W 074°04'0 0.0
2016-Apr-23 07:31N 40°39' W 074°04'0 0.0
2016-Apr-23 06:31N 40°39' W 074°04'0 0.0
2016-Apr-23 05:31N 40°39' W 074°04'0 0.0
2016-Apr-23 04:31N 40°39' W 074°04'0 0.0
2016-Apr-23 03:31N 40°39' W 074°04'0 0.0
2016-Apr-23 02:31N 40°39' W 074°04'0 0.0
2016-Apr-23 01:31N 40°39' W 074°04'0 0.0
2016-Apr-23 00:31N 40°39' W 074°04'0 0.0
2016-Apr-22 23:28N 40°39' W 074°04'0 0.0
2016-Apr-22 22:31N 40°39' W 074°04'0 0.0
2016-Apr-22 21:31N 40°39' W 074°04'0 0.0
2016-Apr-22 20:31N 40°39' W 074°04'0 0.0
2016-Apr-22 19:31N 40°39' W 074°04'0 0.0
2016-Apr-22 18:31N 40°39' W 074°04'0 0.0
2016-Apr-22 17:31N 40°39' W 074°04'0 0.0
2016-Apr-22 16:31N 40°39' W 074°04'0 0.0
2016-Apr-22 15:31N 40°39' W 074°04'0 0.0
2016-Apr-22 14:31N 40°39' W 074°04'0 0.0
2016-Apr-22 13:31N 40°39' W 074°04'0 0.0
2016-Apr-22 12:31N 40°39' W 074°04'0 0.0
2016-Apr-22 11:31N 40°39' W 074°04'0 0.0
2016-Apr-22 10:31N 40°39' W 074°04'0 0.0
2016-Apr-22 09:28N 40°39' W 074°04'0 0.0
2016-Apr-22 08:31N 40°39' W 074°04'0 0.0
2016-Apr-22 07:31N 40°39' W 074°04'0 0.0
2016-Apr-22 06:31N 40°39' W 074°04'0 0.0
2016-Apr-22 05:31N 40°39' W 074°04'0 0.0
2016-Apr-22 04:31N 40°39' W 074°04'0 0.0
2016-Apr-22 03:31N 40°39' W 074°04'0 0.0
2016-Apr-22 02:31N 40°39' W 074°04'0 0.0
2016-Apr-22 01:22N 40°39' W 074°04'0 0.0
2016-Apr-22 00:31N 40°39' W 074°04'0 0.0
2016-Apr-21 23:31N 40°39' W 074°04'0 0.0
2016-Apr-21 22:31N 40°39' W 074°04'0 0.0
2016-Apr-21 21:31N 40°39' W 074°04'0 0.0
2016-Apr-21 20:31N 40°39' W 074°04'0 0.0
2016-Apr-21 19:31N 40°39' W 074°04'0 0.0
2016-Apr-21 18:31N 40°39' W 074°04'0 0.0
2016-Apr-21 17:31N 40°39' W 074°04'0 0.0
2016-Apr-21 16:31N 40°39' W 074°04'0 0.0
2016-Apr-21 15:31N 40°39' W 074°04'0 0.0
2016-Apr-21 14:28N 40°39' W 074°04'0 0.0
2016-Apr-21 13:31N 40°39' W 074°04'0 0.0
2016-Apr-21 12:31N 40°39' W 074°04'0 0.0
2016-Apr-21 11:31N 40°39' W 074°04'0 0.0
2016-Apr-21 10:31N 40°39' W 074°04'0 0.0
2016-Apr-21 09:31N 40°39' W 074°04'0 0.0
2016-Apr-21 08:31N 40°39' W 074°04'0 0.0
2016-Apr-21 07:31N 40°39' W 074°04'0 0.0
2016-Apr-21 06:31N 40°39' W 074°04'0 0.0
2016-Apr-21 05:31N 40°39' W 074°04'0 0.0
2016-Apr-21 04:31N 40°39' W 074°04'0 0.0
2016-Apr-21 03:31N 40°39' W 074°04'0 0.0
2016-Apr-21 02:31N 40°39' W 074°04'0 0.0
2016-Apr-21 01:31N 40°39' W 074°04'0 0.0
2016-Apr-21 00:31N 40°39' W 074°04'0 0.0
2016-Apr-20 23:31N 40°39' W 074°04'0 0.0
2016-Apr-20 22:31N 40°39' W 074°04'0 0.0
2016-Apr-20 21:31N 40°39' W 074°04'0 0.0
2016-Apr-20 20:31N 40°39' W 074°04'0 0.0
2016-Apr-20 19:31N 40°39' W 074°04'0 0.0
2016-Apr-20 18:31N 40°39' W 074°04'0 0.0
2016-Apr-20 17:28N 40°39' W 074°04'0 0.0
2016-Apr-20 16:31N 40°39' W 074°04'0 0.0
2016-Apr-20 15:28N 40°39' W 074°04'  

Dump ship's entire track history